Time;durP1;ratioP1;P1;durP2;ratioP2;P2;SDS_P1;SDS_P2;PMS_P1;PMS_P2;Temp;Humidity;BMP_temperature;BMP_pressure;BME280_temperature;BME280_humidity;BME280_pressure;Samples;Min_cycle;Max_cycle;Signal;HPM_P1;HPM_P2
2022/07/18 00:01:33;;;;;;;3.03;1.70;;;17.90;64.70;;;;;;5086440;28;20044;-68
2022/07/18 00:03:59;;;;;;;2.38;1.50;;;17.80;64.60;;;;;;5079903;28;20032;-68
2022/07/18 00:06:25;;;;;;;1.45;1.20;;;17.80;64.50;;;;;;5081173;28;20081;-71
2022/07/18 00:08:50;;;;;;;2.53;1.40;;;17.70;64.60;;;;;;5093645;27;20111;-69
2022/07/18 00:11:16;;;;;;;3.50;1.65;;;17.70;64.50;;;;;;5086421;28;20031;-69
2022/07/18 00:13:42;;;;;;;2.53;1.58;;;17.70;64.20;;;;;;5092787;28;20032;-71
2022/07/18 00:16:08;;;;;;;3.83;2.08;;;17.70;64.50;;;;;;5080058;28;20181;-70
2022/07/18 00:18:34;;;;;;;3.75;1.52;;;17.70;64.50;;;;;;5083616;28;20115;-70
2022/07/18 00:20:59;;;;;;;5.65;1.92;;;17.70;64.50;;;;;;5079788;28;20386;-70
2022/07/18 00:23:25;;;;;;;2.20;1.60;;;17.60;64.60;;;;;;5084745;28;20479;-70
2022/07/18 00:25:51;;;;;;;2.85;1.60;;;17.60;64.40;;;;;;5078513;28;20027;-69
2022/07/18 00:28:16;;;;;;;2.58;1.52;;;17.60;64.10;;;;;;5088661;28;20036;-69
2022/07/18 00:30:42;;;;;;;2.58;1.60;;;17.60;64.30;;;;;;5089310;28;20476;-71
2022/07/18 00:33:08;;;;;;;1.73;1.20;;;17.60;64.30;;;;;;5086458;28;20036;-71
2022/07/18 00:35:34;;;;;;;2.75;1.50;;;17.50;64.00;;;;;;5086277;28;20028;-69
2022/07/18 00:38:01;;;;;;;3.58;1.83;;;17.50;64.20;;;;;;5074368;28;20512;-69
2022/07/18 00:40:28;;;;;;;1.70;1.60;;;17.40;64.70;;;;;;5083054;28;20024;-70
2022/07/18 00:42:53;;;;;;;3.10;1.58;;;17.40;64.60;;;;;;5087224;28;20198;-69
2022/07/18 00:45:19;;;;;;;3.50;1.65;;;17.40;64.90;;;;;;5086149;28;20503;-69
2022/07/18 00:47:44;;;;;;;3.47;1.50;;;17.40;64.90;;;;;;5077649;28;20024;-70
2022/07/18 00:50:11;;;;;;;1.92;1.45;;;17.40;64.90;;;;;;5088400;28;20035;-69
2022/07/18 00:52:36;;;;;;;4.38;1.70;;;17.40;65.40;;;;;;5076414;28;20393;-69
2022/07/18 00:55:05;;;;;;;2.47;1.40;;;17.30;65.00;;;;;;5086235;28;20107;-71
2022/07/18 00:57:30;;;;;;;1.98;1.50;;;17.20;65.00;;;;;;5088390;28;20032;-71
2022/07/18 01:02:41;;;;;;;2.13;1.80;;;17.10;65.40;;;;;;5089449;28;20066;-69
2022/07/18 01:05:08;;;;;;;3.63;1.45;;;17.10;65.50;;;;;;5084094;28;20051;-69
2022/07/18 01:07:37;;;;;;;2.92;1.45;;;17.00;65.70;;;;;;5082866;28;20028;-68
2022/07/18 01:10:06;;;;;;;1.50;1.40;;;17.00;66.10;;;;;;5082247;28;20038;-69
2022/07/18 01:12:32;;;;;;;4.30;1.80;;;16.90;66.50;;;;;;5083803;28;20051;-69
2022/07/18 01:14:58;;;;;;;2.85;1.63;;;16.90;66.70;;;;;;5084116;28;20482;-72
2022/07/18 01:17:24;;;;;;;3.90;2.13;;;16.80;67.00;;;;;;5076369;28;20078;-69
2022/07/18 01:19:50;;;;;;;3.80;1.85;;;16.80;67.40;;;;;;5076083;28;20021;-72
2022/07/18 01:22:18;;;;;;;2.00;1.67;;;16.70;67.60;;;;;;5088879;28;20024;-69
2022/07/18 01:24:43;;;;;;;1.65;1.33;;;16.70;67.90;;;;;;5078108;28;20046;-69
2022/07/18 01:27:17;;;;;;;1.77;1.50;;;16.60;68.00;;;;;;5076632;28;20855;-69
2022/07/18 01:29:43;;;;;;;1.67;1.33;;;16.60;68.30;;;;;;5077326;28;20085;-69
2022/07/18 01:32:10;;;;;;;1.65;1.35;;;16.50;68.50;;;;;;5083865;28;20051;-69
2022/07/18 01:34:36;;;;;;;2.95;1.50;;;16.50;68.60;;;;;;5084391;28;20110;-69
2022/07/18 01:37:03;;;;;;;2.45;1.58;;;16.50;68.50;;;;;;5086014;28;20047;-69
2022/07/18 01:39:29;;;;;;;2.00;1.30;;;16.40;68.60;;;;;;5086135;28;20059;-69
2022/07/18 01:41:59;;;;;;;2.95;1.65;;;16.40;68.80;;;;;;5080419;28;20029;-69
2022/07/18 01:44:25;;;;;;;;;;;16.30;68.90;;;;;;5080534;28;20024;-69
2022/07/18 01:46:51;;;;;;;1.00;0.90;;;16.30;69.10;;;;;;5079041;28;20373;-69
2022/07/18 01:49:18;;;;;;;2.38;1.40;;;16.30;69.00;;;;;;5089638;28;20048;-69
2022/07/18 01:51:48;;;;;;;1.38;1.27;;;16.30;69.60;;;;;;5088381;28;20039;-69
2022/07/18 01:54:14;;;;;;;1.92;1.00;;;16.30;69.10;;;;;;5084924;28;20167;-70
2022/07/18 01:56:40;;;;;;;3.88;1.80;;;16.30;69.10;;;;;;5080550;28;20028;-69
2022/07/18 01:59:06;;;;;;;1.90;1.30;;;16.20;69.00;;;;;;5096229;28;20032;-69
2022/07/18 02:01:32;;;;;;;2.15;1.30;;;16.20;69.10;;;;;;5090311;28;20024;-69
2022/07/18 02:03:57;;;;;;;2.33;1.35;;;16.20;69.00;;;;;;5090318;28;20115;-69
2022/07/18 02:06:23;;;;;;;2.60;1.27;;;16.10;68.80;;;;;;5089456;28;20081;-69
2022/07/18 02:08:49;;;;;;;2.58;1.50;;;16.10;69.00;;;;;;5080957;28;20040;-69
2022/07/18 02:11:14;;;;;;;1.10;1.00;;;16.00;69.30;;;;;;5088363;28;20024;-69
2022/07/18 02:13:40;;;;;;;3.13;1.80;;;16.00;69.70;;;;;;5091052;28;20529;-69
2022/07/18 02:16:06;;;;;;;1.73;1.25;;;15.90;69.70;;;;;;5089836;28;20040;-68
2022/07/18 02:18:32;;;;;;;2.63;1.80;;;15.90;69.90;;;;;;5091191;28;20035;-69
2022/07/18 02:20:59;;;;;;;2.00;1.50;;;15.80;69.70;;;;;;5079071;28;20033;-70
2022/07/18 02:23:25;;;;;;;2.28;1.50;;;15.80;69.30;;;;;;5079655;28;20453;-70
2022/07/18 02:25:50;;;;;;;2.65;1.77;;;15.90;69.80;;;;;;5089571;28;20024;-72
2022/07/18 02:28:16;;;;;;;1.88;1.58;;;15.80;70.00;;;;;;5085300;28;20078;-70
2022/07/18 02:30:42;;;;;;;2.33;1.30;;;15.80;70.20;;;;;;5076161;28;20028;-71
2022/07/18 02:33:07;;;;;;;1.40;1.17;;;15.70;70.10;;;;;;5089604;28;20028;-70
2022/07/18 02:35:33;;;;;;;1.92;1.42;;;15.70;70.00;;;;;;5077132;28;20044;-70
2022/07/18 02:37:59;;;;;;;2.15;1.48;;;15.60;70.20;;;;;;5089066;28;20082;-70
2022/07/18 02:40:25;;;;;;;3.20;1.77;;;15.60;70.50;;;;;;5090925;28;20477;-70
2022/07/18 02:42:51;;;;;;;3.28;1.67;;;15.50;70.70;;;;;;5082261;28;20024;-71
2022/07/18 02:45:17;;;;;;;2.72;1.67;;;15.60;70.90;;;;;;5088065;28;22245;-70
2022/07/18 02:47:42;;;;;;;2.63;1.20;;;15.50;70.90;;;;;;5079208;28;20059;-70
2022/07/18 02:50:11;;;;;;;2.38;1.65;;;15.50;71.00;;;;;;5087152;28;20036;-68
2022/07/18 02:52:38;;;;;;;2.35;1.48;;;15.50;71.50;;;;;;5080262;28;20025;-69
2022/07/18 02:55:04;;;;;;;3.55;1.88;;;15.50;71.70;;;;;;5088131;28;20039;-70
2022/07/18 02:57:30;;;;;;;2.50;1.67;;;15.50;71.80;;;;;;5082227;28;20135;-70
2022/07/18 02:59:56;;;;;;;4.40;2.70;;;15.50;71.80;;;;;;5081586;28;20169;-71
2022/07/18 03:02:21;;;;;;;5.72;2.50;;;15.50;70.90;;;;;;5075603;28;20040;-71
2022/07/18 03:04:47;;;;;;;6.43;3.15;;;15.50;71.20;;;;;;5085118;28;20020;-70
2022/07/18 03:07:13;;;;;;;7.00;4.18;;;15.40;71.60;;;;;;5079304;28;20210;-70
2022/07/18 03:09:39;;;;;;;4.95;3.47;;;15.40;71.70;;;;;;5082714;28;20498;-70
2022/07/18 03:12:05;;;;;;;6.47;4.13;;;15.40;71.90;;;;;;5079308;28;20458;-70
2022/07/18 03:14:31;;;;;;;6.57;4.07;;;15.40;72.10;;;;;;5083569;28;20028;-70
2022/07/18 03:16:57;;;;;;;6.55;3.90;;;15.30;72.20;;;;;;5073595;28;20033;-71
2022/07/18 03:19:22;;;;;;;5.63;3.38;;;15.30;72.50;;;;;;5076023;28;20036;-70
2022/07/18 03:21:48;;;;;;;4.72;3.13;;;15.20;72.50;;;;;;5079175;28;20043;-70
2022/07/18 03:24:14;;;;;;;7.00;3.00;;;15.20;72.60;;;;;;5079671;28;20033;-70
2022/07/18 03:26:41;;;;;;;6.10;2.63;;;15.20;72.80;;;;;;5083592;28;20042;-69
2022/07/18 03:29:06;;;;;;;3.30;2.00;;;15.20;73.10;;;;;;5078644;28;20020;-70
2022/07/18 03:31:32;;;;;;;2.70;1.90;;;15.20;73.20;;;;;;5084226;28;20032;-70
2022/07/18 03:33:59;;;;;;;3.33;1.88;;;15.10;73.40;;;;;;5076436;28;20401;-70
2022/07/18 03:36:24;;;;;;;2.58;1.80;;;15.10;73.70;;;;;;5081520;28;20032;-70
2022/07/18 03:38:50;;;;;;;3.33;1.60;;;15.10;73.80;;;;;;5084082;28;20036;-71
2022/07/18 03:41:16;;;;;;;2.58;1.63;;;15.10;74.20;;;;;;5066839;28;20464;-70
2022/07/18 03:43:41;;;;;;;2.05;1.60;;;15.10;74.50;;;;;;5079343;28;20107;-70
2022/07/18 03:46:07;;;;;;;3.45;1.90;;;15.10;74.50;;;;;;5083657;28;20035;-70
2022/07/18 03:48:34;;;;;;;4.10;1.98;;;15.10;74.80;;;;;;5084747;28;20074;-70
2022/07/18 03:51:00;;;;;;;3.60;1.65;;;15.10;74.80;;;;;;5088139;28;20085;-70
2022/07/18 03:53:26;;;;;;;3.55;1.95;;;15.10;75.00;;;;;;5081624;28;20373;-70
2022/07/18 03:55:51;;;;;;;2.58;1.60;;;15.10;75.10;;;;;;5078872;28;20444;-71
2022/07/18 03:58:17;;;;;;;1.73;1.35;;;15.10;75.30;;;;;;5088981;28;20047;-70
2022/07/18 04:00:43;;;;;;;3.15;1.80;;;15.10;75.30;;;;;;5092542;28;20032;-71
2022/07/18 04:03:08;;;;;;;2.13;1.80;;;15.10;75.50;;;;;;5087189;28;20032;-69
2022/07/18 04:05:34;;;;;;;2.85;1.83;;;15.10;75.70;;;;;;5083545;28;20534;-69
2022/07/18 04:08:00;;;;;;;4.53;1.60;;;15.10;75.90;;;;;;5082189;28;20028;-70
2022/07/18 04:10:26;;;;;;;1.85;1.58;;;15.20;76.30;;;;;;5087806;28;20028;-70
2022/07/18 04:12:53;;;;;;;3.85;1.77;;;15.20;76.30;;;;;;5089595;28;20053;-70
2022/07/18 04:15:21;;;;;;;3.88;1.70;;;15.30;76.40;;;;;;5086163;28;20054;-70
2022/07/18 04:17:47;;;;;;;2.40;1.70;;;15.30;76.30;;;;;;5075637;28;20032;-71
2022/07/18 04:20:14;;;;;;;2.72;1.70;;;15.40;76.30;;;;;;5079466;28;20040;-70
2022/07/18 04:22:49;;;;;;;2.95;1.50;;;15.40;76.30;;;;;;5087673;28;20070;-70
2022/07/18 04:25:15;;;;;;;5.38;2.05;;;15.50;76.30;;;;;;5083786;28;20519;-70
2022/07/18 04:27:41;;;;;;;3.40;1.92;;;15.60;76.60;;;;;;5078155;28;20104;-70
2022/07/18 04:30:07;;;;;;;3.60;2.40;;;15.60;76.80;;;;;;5080392;28;20107;-69
2022/07/18 04:32:33;;;;;;;2.67;1.90;;;15.60;76.90;;;;;;5079488;28;20029;-70
2022/07/18 04:34:59;;;;;;;2.78;1.60;;;15.60;76.90;;;;;;5077852;28;20028;-71
2022/07/18 04:37:25;;;;;;;3.88;1.65;;;15.70;77.20;;;;;;5086233;28;20510;-70
2022/07/18 04:39:50;;;;;;;2.88;1.77;;;15.80;77.30;;;;;;5078989;28;20436;-71
2022/07/18 04:42:16;;;;;;;3.58;2.00;;;15.80;77.30;;;;;;5088204;28;20024;-70
2022/07/18 04:44:41;;;;;;;4.05;2.08;;;15.90;77.30;;;;;;5078616;28;20107;-70
2022/07/18 04:47:07;;;;;;;2.95;1.80;;;16.00;77.90;;;;;;5076304;28;20074;-70
2022/07/18 04:49:32;;;;;;;2.65;2.00;;;16.10;77.50;;;;;;5101659;28;20032;-70
2022/07/18 04:51:58;;;;;;;3.47;2.10;;;16.10;77.40;;;;;;5074866;28;20103;-71
2022/07/18 04:54:24;;;;;;;4.28;1.90;;;16.20;77.30;;;;;;5083090;28;20031;-70
2022/07/18 04:56:49;;;;;;;3.58;2.08;;;16.30;76.90;;;;;;5088733;28;20524;-70
2022/07/18 04:59:15;;;;;;;2.60;1.92;;;16.40;76.60;;;;;;5092640;28;20040;-70
2022/07/18 05:01:41;;;;;;;3.72;2.20;;;16.50;76.40;;;;;;5077578;28;20039;-70
2022/07/18 05:04:06;;;;;;;2.17;1.80;;;16.60;76.90;;;;;;5082094;28;20029;-70
2022/07/18 05:06:32;;;;;;;4.68;1.90;;;16.70;76.70;;;;;;5082040;28;20071;-70
2022/07/18 05:08:57;;;;;;;7.28;2.65;;;16.80;76.60;;;;;;5091469;28;20100;-72
2022/07/18 05:11:23;;;;;;;3.17;2.03;;;16.80;76.60;;;;;;5084040;28;20043;-70
2022/07/18 05:13:49;;;;;;;5.10;2.20;;;16.90;76.50;;;;;;5078859;28;20070;-70
2022/07/18 05:16:14;;;;;;;3.55;2.15;;;17.10;76.70;;;;;;5091881;28;20096;-70
2022/07/18 05:18:40;;;;;;;5.07;2.45;;;17.20;76.10;;;;;;5092720;28;20392;-70
2022/07/18 05:21:06;;;;;;;3.58;2.20;;;17.30;75.70;;;;;;5090126;28;20051;-70
2022/07/18 05:23:31;;;;;;;3.75;2.47;;;17.40;75.60;;;;;;5092372;28;20062;-70
2022/07/18 05:25:57;;;;;;;5.82;2.67;;;17.60;75.30;;;;;;5091917;28;20028;-72
2022/07/18 05:28:23;;;;;;;5.75;2.60;;;17.70;74.90;;;;;;5084494;28;20040;-70
2022/07/18 05:30:48;;;;;;;3.53;2.45;;;17.80;75.10;;;;;;5090199;28;20028;-79
2022/07/18 05:33:14;;;;;;;6.03;2.85;;;17.90;75.30;;;;;;5089582;28;20039;-70
2022/07/18 05:35:40;;;;;;;5.32;2.80;;;18.10;75.60;;;;;;5092005;28;20050;-71
2022/07/18 05:38:05;;;;;;;6.78;2.28;;;18.20;76.30;;;;;;5087712;28;20481;-71
2022/07/18 05:40:31;;;;;;;5.85;2.58;;;18.30;76.80;;;;;;5087567;28;20059;-71
2022/07/18 05:42:57;;;;;;;3.15;2.60;;;18.40;77.30;;;;;;5081144;28;20032;-71
2022/07/18 05:45:24;;;;;;;4.85;2.67;;;18.50;77.20;;;;;;5090390;28;20032;-72
2022/07/18 05:47:50;;;;;;;6.13;2.95;;;18.60;77.40;;;;;;5082415;28;20034;-71
2022/07/18 05:50:16;;;;;;;3.80;2.88;;;18.70;77.30;;;;;;5084563;28;20040;-72
2022/07/18 05:52:41;;;;;;;3.30;2.90;;;18.70;77.40;;;;;;5088323;28;20024;-71
2022/07/18 05:55:08;;;;;;;3.33;2.40;;;18.80;77.40;;;;;;5089284;28;20035;-72
2022/07/18 05:57:34;;;;;;;4.80;2.85;;;18.80;77.30;;;;;;5091344;28;20099;-71
2022/07/18 06:00:00;;;;;;;5.68;2.75;;;18.90;77.40;;;;;;5094800;28;20450;-71
2022/07/18 06:02:26;;;;;;;3.90;2.80;;;19.00;77.20;;;;;;5086588;28;20102;-71
2022/07/18 06:04:51;;;;;;;5.13;2.95;;;19.10;77.50;;;;;;5081544;28;20035;-69
2022/07/18 06:07:17;;;;;;;5.13;2.80;;;19.20;77.70;;;;;;5080548;28;20692;-68
2022/07/18 06:09:43;;;;;;;4.25;2.63;;;19.20;77.30;;;;;;5090667;28;20037;-69
2022/07/18 06:12:08;;;;;;;5.75;2.85;;;19.30;77.40;;;;;;5084817;28;20074;-69
2022/07/18 06:14:34;;;;;;;6.40;3.20;;;19.50;77.60;;;;;;5081134;28;20028;-88
2022/07/18 06:17:00;;;;;;;4.10;2.58;;;19.60;76.80;;;;;;5061244;28;20039;-69
2022/07/18 06:19:25;;;;;;;3.75;2.60;;;19.70;77.20;;;;;;5083155;28;20033;-69
2022/07/18 06:21:51;;;;;;;5.18;2.90;;;19.70;76.80;;;;;;5081358;28;20056;-70
2022/07/18 06:24:17;;;;;;;9.27;3.13;;;19.80;77.10;;;;;;5085248;28;20231;-69
2022/07/18 06:26:43;;;;;;;6.97;3.03;;;20.00;77.00;;;;;;5096936;28;20469;-71
2022/07/18 06:29:08;;;;;;;3.95;3.17;;;20.10;77.70;;;;;;5086082;28;20400;-69
2022/07/18 06:31:34;;;;;;;5.05;2.92;;;20.20;76.70;;;;;;5089472;28;20032;-69
2022/07/18 06:33:59;;;;;;;6.38;3.03;;;20.20;76.70;;;;;;5089929;28;20456;-72
2022/07/18 06:36:25;;;;;;;5.97;3.10;;;20.30;76.90;;;;;;5106526;27;20039;-68
2022/07/18 06:38:51;;;;;;;4.68;3.00;;;20.40;77.50;;;;;;5076924;28;20407;-68
2022/07/18 06:41:18;;;;;;;9.68;3.58;;;20.50;76.80;;;;;;5097216;28;20041;-69
2022/07/18 06:43:44;;;;;;;6.00;3.10;;;20.50;76.30;;;;;;5101663;28;20431;-69
2022/07/18 06:46:10;;;;;;;7.53;3.20;;;20.60;76.20;;;;;;5097938;28;20039;-69
2022/07/18 06:48:35;;;;;;;6.85;3.53;;;20.60;76.20;;;;;;5097003;28;20027;-71
2022/07/18 06:51:05;;;;;;;6.45;3.40;;;20.60;76.20;;;;;;5108694;28;20035;-71
2022/07/18 06:53:31;;;;;;;9.70;3.38;;;20.70;76.30;;;;;;5089280;28;20421;-71
2022/07/18 06:55:57;;;;;;;5.43;3.28;;;20.90;75.50;;;;;;5089663;28;20036;-70
2022/07/18 06:58:23;;;;;;;7.75;3.05;;;21.00;75.30;;;;;;5107123;28;20024;-71
2022/07/18 07:00:49;;;;;;;7.00;3.03;;;21.10;75.50;;;;;;5092042;28;20471;-71
2022/07/18 07:03:15;;;;;;;8.00;3.60;;;21.30;74.70;;;;;;5090064;28;20161;-71
2022/07/18 07:05:41;;;;;;;5.18;3.10;;;21.40;74.20;;;;;;5089753;28;20122;-71
2022/07/18 07:08:06;;;;;;;12.15;3.65;;;21.60;74.00;;;;;;5105758;28;20055;-71
2022/07/18 07:10:32;;;;;;;10.85;3.45;;;21.70;73.80;;;;;;5101142;28;20469;-71
2022/07/18 07:12:58;;;;;;;4.55;3.10;;;21.90;73.20;;;;;;5093761;28;20035;-71
2022/07/18 07:15:24;;;;;;;12.60;3.97;;;22.00;73.00;;;;;;5095792;28;20058;-71
2022/07/18 07:17:51;;;;;;;4.93;3.10;;;22.10;73.20;;;;;;5095392;28;20492;-71
2022/07/18 07:20:19;;;;;;;7.15;3.15;;;22.30;72.20;;;;;;5089945;28;20539;-71
2022/07/18 07:22:53;;;;;;;6.75;3.03;;;22.50;71.70;;;;;;5096992;28;20027;-71
2022/07/18 07:25:20;;;;;;;8.35;3.42;;;22.60;71.40;;;;;;5092380;28;20779;-71
2022/07/18 07:27:46;;;;;;;11.25;3.28;;;22.70;71.00;;;;;;5094287;28;20040;-71
2022/07/18 07:30:13;;;;;;;8.40;3.17;;;22.80;71.50;;;;;;5089683;28;20123;-69
2022/07/18 07:32:42;;;;;;;6.78;3.38;;;23.00;70.70;;;;;;5097181;28;20058;-69
2022/07/18 07:35:12;;;;;;;5.85;2.88;;;23.10;70.80;;;;;;5081351;28;20362;-69
2022/07/18 07:37:41;;;;;;;;;;;23.30;70.30;;;;;;5096039;28;20051;-69
2022/07/18 07:40:08;;;;;;;9.07;3.28;;;23.50;69.30;;;;;;5094847;28;19970;-69
2022/07/18 07:42:33;;;;;;;9.55;3.20;;;23.60;69.70;;;;;;5091420;28;20527;-69
2022/07/18 07:44:59;;;;;;;9.18;2.75;;;23.80;69.10;;;;;;5089696;28;20032;-70
2022/07/18 07:47:25;;;;;;;12.25;3.10;;;24.10;67.70;;;;;;5077528;28;20035;-69
2022/07/18 07:49:51;;;;;;;9.45;3.10;;;24.20;66.90;;;;;;5093933;28;20035;-69
2022/07/18 07:52:17;;;;;;;5.90;3.08;;;24.30;66.90;;;;;;5097275;28;20023;-69
2022/07/18 07:54:46;;;;;;;4.68;2.35;;;24.50;66.70;;;;;;5092946;28;20056;-69
2022/07/18 07:57:13;;;;;;;5.80;2.60;;;24.60;66.30;;;;;;5086239;28;20063;-69
2022/07/18 07:59:38;;;;;;;4.93;2.45;;;24.70;66.50;;;;;;5092617;28;20480;-70
2022/07/18 08:02:04;;;;;;;6.32;2.70;;;24.80;65.70;;;;;;5094622;28;20062;-70
2022/07/18 08:04:30;;;;;;;11.68;2.75;;;24.90;66.10;;;;;;5091784;28;20020;-69
2022/07/18 08:06:56;;;;;;;9.63;3.00;;;25.10;65.20;;;;;;5082622;28;20457;-69
2022/07/18 08:09:22;;;;;;;14.27;3.00;;;25.10;64.90;;;;;;5085807;28;20025;-69
2022/07/18 08:11:47;;;;;;;6.53;2.60;;;25.10;65.40;;;;;;5090817;28;20047;-69
2022/07/18 08:14:13;;;;;;;7.30;2.90;;;25.30;65.00;;;;;;5092343;28;20361;-69
2022/07/18 08:16:39;;;;;;;7.35;2.83;;;25.30;64.30;;;;;;5088294;28;20048;-69
2022/07/18 08:19:04;;;;;;;5.70;2.90;;;25.40;64.50;;;;;;5087000;28;20438;-69
2022/07/18 08:21:30;;;;;;;9.93;2.55;;;25.50;64.00;;;;;;5084307;28;20514;-69
2022/07/18 08:23:56;;;;;;;8.88;3.13;;;25.60;63.80;;;;;;5067924;28;20499;-69
2022/07/18 08:26:21;;;;;;;9.77;3.20;;;25.60;63.60;;;;;;5082915;28;20020;-69
2022/07/18 08:28:47;;;;;;;10.32;2.80;;;25.80;64.40;;;;;;5088922;28;20483;-69
2022/07/18 08:31:13;;;;;;;14.32;2.83;;;25.90;63.30;;;;;;5082363;28;20028;-69
2022/07/18 08:33:39;;;;;;;21.92;3.65;;;26.20;64.90;;;;;;5089656;28;20024;-69
2022/07/18 08:36:04;;;;;;;7.40;3.20;;;26.30;63.10;;;;;;5092233;28;20020;-70
2022/07/18 08:38:30;;;;;;;8.13;2.90;;;26.40;62.30;;;;;;5090939;28;20036;-69
2022/07/18 08:40:58;;;;;;;6.43;2.20;;;26.50;61.40;;;;;;5088165;28;20392;-70
2022/07/18 08:43:25;;;;;;;9.50;2.20;;;26.50;60.50;;;;;;5089482;28;20034;-69
2022/07/18 08:45:55;;;;;;;8.50;2.67;;;26.70;60.80;;;;;;5090680;28;20035;-68
2022/07/18 08:48:21;;;;;;;9.82;2.42;;;26.80;61.60;;;;;;5091773;28;20020;-68
2022/07/18 08:50:48;;;;;;;6.30;2.50;;;27.00;60.50;;;;;;5077839;28;20027;-68
2022/07/18 08:53:15;;;;;;;6.35;2.78;;;27.10;60.40;;;;;;5081881;28;20267;-68
2022/07/18 08:55:42;;;;;;;6.95;2.88;;;27.20;60.70;;;;;;5094146;28;20056;-69
2022/07/18 08:58:08;;;;;;;4.25;2.60;;;27.20;58.60;;;;;;5087799;28;20015;-68
2022/07/18 09:00:35;;;;;;;6.15;2.83;;;27.20;58.90;;;;;;5086074;28;20127;-69
2022/07/18 09:03:01;;;;;;;11.77;3.17;;;27.30;58.60;;;;;;5089443;28;20032;-69
2022/07/18 09:05:28;;;;;;;7.25;2.60;;;27.30;58.00;;;;;;5089619;28;20032;-69
2022/07/18 09:08:07;;;;;;;8.65;2.88;;;27.40;57.40;;;;;;5092039;28;20035;-69
2022/07/18 09:10:52;;;;;;;6.68;2.25;;;27.50;56.50;;;;;;5084790;28;20035;-69
2022/07/18 09:13:39;;;;;;;5.88;2.08;;;27.60;55.60;;;;;;5091988;28;20040;-68
2022/07/18 09:16:08;;;;;;;5.57;1.77;;;27.80;55.10;;;;;;5097761;28;20527;-69
2022/07/18 09:18:37;;;;;;;6.65;2.42;;;28.00;53.80;;;;;;5089970;28;20046;-69
2022/07/18 09:21:09;;;;;;;9.18;2.67;;;28.20;53.00;;;;;;5090295;28;20036;-71
2022/07/18 09:23:37;;;;;;;4.60;2.17;;;28.30;52.70;;;;;;5084840;28;20484;-69
2022/07/18 09:26:03;;;;;;;6.20;1.95;;;28.50;55.20;;;;;;5094492;28;20028;-70
2022/07/18 09:28:45;;;;;;;3.80;2.00;;;28.60;55.00;;;;;;5094243;28;20459;-69
2022/07/18 09:31:24;;;;;;;2.95;1.98;;;28.70;79.00;;;;;;5083917;28;20564;-69
2022/07/18 09:34:01;;;;;;;3.80;1.63;;;28.80;51.10;;;;;;5098117;28;20080;-69
2022/07/18 09:36:28;;;;;;;4.15;2.10;;;28.90;50.40;;;;;;5090664;28;20038;-70
2022/07/18 09:38:54;;;;;;;2.40;1.70;;;29.10;50.10;;;;;;5083858;28;20044;-69
2022/07/18 09:41:32;;;;;;;4.03;2.00;;;29.20;49.20;;;;;;5095740;28;20026;-68
2022/07/18 09:43:58;;;;;;;2.58;1.67;;;29.30;50.30;;;;;;5092616;28;20024;-67
2022/07/18 09:46:23;;;;;;;1.45;1.35;;;29.50;47.00;;;;;;5084833;28;20684;-67
2022/07/18 09:49:08;;;;;;;4.55;2.17;;;29.50;48.10;;;;;;5082586;28;20036;-68
2022/07/18 09:51:34;;;;;;;4.85;1.70;;;29.70;48.10;;;;;;5085820;28;20144;-68
2022/07/18 09:54:01;;;;;;;3.25;2.03;;;29.80;47.90;;;;;;5092548;28;20429;-67
2022/07/18 09:56:27;;;;;;;4.72;2.38;;;29.90;47.90;;;;;;5083519;28;20465;-67
2022/07/18 09:58:55;;;;;;;6.45;2.40;;;30.10;47.80;;;;;;5086195;28;20044;-67
2022/07/18 10:01:21;;;;;;;3.38;1.50;;;30.20;47.60;;;;;;5094138;28;20036;-68
2022/07/18 10:03:48;;;;;;;7.43;1.83;;;30.20;46.90;;;;;;5087865;28;20413;-67
2022/07/18 10:06:15;;;;;;;8.82;1.85;;;30.30;45.90;;;;;;5093945;28;20032;-68
2022/07/18 10:08:41;;;;;;;6.95;1.83;;;30.40;45.80;;;;;;5089916;28;20092;-67
2022/07/18 10:11:08;;;;;;;4.10;2.00;;;30.50;45.90;;;;;;5081475;28;20107;-68
2022/07/18 10:13:35;;;;;;;6.45;1.95;;;30.60;46.80;;;;;;5088652;28;20054;-69
2022/07/18 10:16:02;;;;;;;2.35;1.70;;;30.70;45.30;;;;;;5091434;28;20123;-68
2022/07/18 10:18:31;;;;;;;5.57;1.65;;;30.80;45.80;;;;;;5094590;28;20028;-68
2022/07/18 10:21:05;;;;;;;4.47;2.00;;;30.80;47.10;;;;;;5089659;28;20115;-68
2022/07/18 10:23:43;;;;;;;2.38;1.80;;;30.90;45.40;;;;;;5089032;28;20093;-69
2022/07/18 10:26:12;;;;;;;2.42;1.70;;;30.80;45.10;;;;;;5085932;28;20035;-70
2022/07/18 10:28:56;;;;;;;1.90;1.77;;;30.90;44.20;;;;;;5094466;28;20107;-69
2022/07/18 10:31:34;;;;;;;2.80;1.52;;;30.80;44.30;;;;;;5079020;28;20032;-70
2022/07/18 10:34:08;;;;;;;2.08;1.90;;;30.90;43.90;;;;;;5081838;28;20046;-70
2022/07/18 10:36:49;;;;;;;2.50;1.60;;;31.00;43.80;;;;;;5089723;28;20074;-70
2022/07/18 10:39:24;;;;;;;2.55;1.88;;;31.10;43.80;;;;;;5091953;28;20376;-70
2022/07/18 10:41:54;;;;;;;2.22;1.70;;;31.20;43.40;;;;;;5097179;28;20460;-69
2022/07/18 10:44:40;;;;;;;3.08;1.92;;;31.30;43.70;;;;;;5092109;28;20471;-69
2022/07/18 10:47:20;;;;;;;3.72;1.70;;;31.50;42.70;;;;;;5092675;28;21654;-71
2022/07/18 10:49:57;;;;;;;2.85;1.50;;;31.50;42.80;;;;;;5084271;28;20103;-69
2022/07/18 10:52:28;;;;;;;2.00;1.52;;;31.50;43.00;;;;;;5087697;28;20047;-70
2022/07/18 10:55:03;;;;;;;3.80;2.80;;;31.50;43.40;;;;;;5090712;28;20434;-68
2022/07/18 10:57:35;;;;;;;2.50;1.80;;;31.60;43.60;;;;;;5084048;28;20029;-69
2022/07/18 11:00:25;;;;;;;1.85;1.75;;;31.70;43.40;;;;;;5097949;28;20048;-69
2022/07/18 11:03:00;;;;;;;3.72;1.63;;;31.70;43.30;;;;;;5076284;28;20050;-69
2022/07/18 11:05:25;;;;;;;2.38;1.60;;;31.80;42.80;;;;;;5085888;28;20027;-69
2022/07/18 11:08:15;;;;;;;1.60;1.50;;;31.90;42.20;;;;;;5090484;28;20024;-69
2022/07/18 11:13:23;;;;;;;1.48;1.33;;;;;;;;;;5070483;28;20078;-69
2022/07/18 11:16:02;;;;;;;2.77;1.50;;;;;;;;;;5083674;28;20048;-69
2022/07/18 11:18:27;;;;;;;1.80;1.53;;;32.20;77.30;;;;;;5091956;28;20040;-69
2022/07/18 11:20:53;;;;;;;3.42;1.85;;;32.40;78.30;;;;;;5091460;28;20046;-69
2022/07/18 11:23:27;;;;;;;3.13;1.60;;;32.50;75.60;;;;;;5089837;28;20570;-69
2022/07/18 11:25:58;;;;;;;1.33;1.23;;;32.70;41.40;;;;;;5085497;28;20094;-69
2022/07/18 11:28:26;;;;;;;1.10;1.10;;;32.80;40.70;;;;;;5092245;28;20038;-69
2022/07/18 11:31:06;;;;;;;1.98;1.50;;;32.90;40.80;;;;;;5083735;28;20063;-69
2022/07/18 11:33:34;;;;;;;1.27;1.17;;;33.20;40.70;;;;;;5087538;28;20028;-70
2022/07/18 11:36:07;;;;;;;4.72;1.30;;;33.30;39.60;;;;;;5087291;28;20397;-69
2022/07/18 11:38:34;;;;;;;1.55;1.45;;;33.30;40.00;;;;;;5096201;28;20038;-70
2022/07/18 11:41:01;;;;;;;1.80;1.70;;;33.40;40.20;;;;;;5094458;28;20195;-69
2022/07/18 11:43:27;;;;;;;3.25;1.52;;;33.40;40.70;;;;;;5080207;28;20205;-69
2022/07/18 11:46:04;;;;;;;1.65;1.55;;;33.50;40.80;;;;;;5091948;28;20482;-69
2022/07/18 11:48:30;;;;;;;1.10;1.10;;;33.60;40.50;;;;;;5092508;28;20032;-69
2022/07/18 11:50:56;;;;;;;1.60;1.50;;;33.60;40.20;;;;;;5089783;28;20589;-70
2022/07/18 11:53:22;;;;;;;4.50;1.52;;;33.70;40.00;;;;;;5081162;28;20033;-70
2022/07/18 11:55:48;;;;;;;2.80;1.38;;;33.70;39.60;;;;;;5082863;28;20040;-69
2022/07/18 11:58:15;;;;;;;1.35;1.25;;;33.70;39.80;;;;;;5093945;28;20034;-70
2022/07/18 12:00:42;;;;;;;1.58;1.25;;;33.70;38.90;;;;;;5085775;28;20054;-70
2022/07/18 12:03:10;;;;;;;2.85;1.33;;;33.90;39.20;;;;;;5087764;28;20111;-70
2022/07/18 12:05:38;;;;;;;1.52;1.42;;;33.90;39.00;;;;;;5089360;28;20024;-68
2022/07/18 12:08:29;;;;;;;1.30;1.25;;;33.70;38.40;;;;;;5088882;28;20038;-70
2022/07/18 12:11:17;;;;;;;1.45;1.35;;;33.70;38.90;;;;;;5092120;28;20020;-69
2022/07/18 12:13:44;;;;;;;1.50;1.35;;;33.60;39.50;;;;;;5092591;28;20028;-69
2022/07/18 12:16:31;;;;;;;2.03;1.60;;;33.70;39.10;;;;;;5086699;28;20044;-69
2022/07/18 12:19:08;;;;;;;5.85;1.60;;;33.70;39.50;;;;;;5090577;28;20036;-69
2022/07/18 12:22:04;;;;;;;1.45;1.35;;;33.90;40.40;;;;;;5090276;28;20020;-69
2022/07/18 12:24:49;;;;;;;2.10;1.40;;;34.00;39.50;;;;;;5095824;28;20028;-69
2022/07/18 12:27:30;;;;;;;2.70;1.45;;;34.00;39.40;;;;;;5082439;28;20032;-69
2022/07/18 12:30:02;;;;;;;2.60;1.15;;;34.20;38.90;;;;;;5085136;28;20417;-69
2022/07/18 12:32:41;;;;;;;2.53;1.38;;;34.30;38.70;;;;;;5089356;28;20052;-69
2022/07/18 12:35:36;;;;;;;3.75;1.58;;;34.40;38.80;;;;;;5089270;28;20088;-70
2022/07/18 12:38:08;;;;;;;2.67;1.33;;;34.50;38.90;;;;;;5089819;28;20116;-69
2022/07/18 12:40:41;;;;;;;2.53;1.67;;;34.80;39.20;;;;;;5087772;28;20070;-69
2022/07/18 12:43:10;;;;;;;1.70;1.60;;;35.00;39.20;;;;;;5096644;28;20106;-70
2022/07/18 12:45:37;;;;;;;1.90;1.60;;;35.20;39.40;;;;;;5079013;28;20358;-69
2022/07/18 12:48:05;;;;;;;2.13;1.33;;;35.20;38.10;;;;;;5089157;28;20040;-70
2022/07/18 12:50:30;;;;;;;4.13;1.77;;;35.00;39.10;;;;;;5085531;28;20115;-69
2022/07/18 12:52:57;;;;;;;7.80;1.80;;;35.00;38.80;;;;;;5086229;28;20512;-70
2022/07/18 12:55:23;;;;;;;1.60;1.50;;;34.90;39.50;;;;;;5086594;28;20085;-69
2022/07/18 12:57:49;;;;;;;1.50;1.40;;;34.90;39.70;;;;;;5090939;28;20530;-70